Time,TemperatureF,DewpointF,PressureIn,WindDirection,WindDirectionDegrees,WindSpeedMPH,WindSpeedGustMPH,Humidity,HourlyPrecipIn,Conditions,Clouds,dailyrainin,SoftwareType,DateUTC
2013-03-19 00:10:00,63.6,53.0,29.96,NNE,13,0.0,5.0,69,0.00,,,0.00,weatherlink.com 1.10,2013-03-19 05:10:00,
2013-03-19 00:25:00,63.2,54.0,29.97,North,350,3.0,6.0,71,0.00,,,0.00,weatherlink.com 1.10,2013-03-19 05:25:00,
2013-03-19 00:40:00,63.1,54.0,29.97,WNW,299,0.0,5.0,73,0.00,,,0.00,weatherlink.com 1.10,2013-03-19 05:40:00,
2013-03-19 00:55:00,62.7,54.0,29.98,NNE,19,0.0,3.0,73,0.00,,,0.00,weatherlink.com 1.10,2013-03-19 05:55:00,
2013-03-19 01:10:00,62.2,54.0,29.98,South,188,1.0,4.0,75,0.00,,,0.00,weatherlink.com 1.10,2013-03-19 06:10:00,
2013-03-19 01:25:00,61.9,54.0,29.98,West,263,0.0,5.0,75,0.00,,,0.00,weatherlink.com 1.10,2013-03-19 06:25:00,
2013-03-19 01:40:00,61.4,53.0,29.98,NW,304,6.0,6.0,74,0.00,,,0.00,weatherlink.com 1.10,2013-03-19 06:40:00,
2013-03-19 01:56:00,61.3,52.0,29.99,SE,130,0.0,12.0,72,0.00,,,0.00,weatherlink.com 1.10,2013-03-19 06:56:00,
2013-03-19 02:11:00,60.6,52.0,29.99,West,261,2.0,7.0,72,0.00,,,0.00,weatherlink.com 1.10,2013-03-19 07:11:00,
2013-03-19 02:26:00,60.1,51.0,29.98,SSW,196,0.0,6.0,71,0.00,,,0.00,weatherlink.com 1.10,2013-03-19 07:26:00,
2013-03-19 02:41:00,59.5,50.0,29.99,ENE,70,0.0,11.0,72,0.00,,,0.00,weatherlink.com 1.10,2013-03-19 07:41:00,
2013-03-19 02:56:00,59.2,51.0,29.99,SSE,166,0.0,10.0,73,0.00,,,0.00,weatherlink.com 1.10,2013-03-19 07:56:00,
2013-03-19 03:11:00,58.9,50.0,29.99,NNW,327,0.0,7.0,73,0.00,,,0.00,weatherlink.com 1.10,2013-03-19 08:11:00,
2013-03-19 03:26:00,58.4,50.0,29.99,SSE,158,0.0,6.0,73,0.00,,,0.00,weatherlink.com 1.10,2013-03-19 08:26:00,
2013-03-19 03:41:00,57.9,50.0,29.99,South,183,0.0,5.0,74,0.00,,,0.00,weatherlink.com 1.10,2013-03-19 08:41:00,
2013-03-19 04:12:00,57.2,50.0,29.98,SSE,158,0.0,5.0,76,0.00,,,0.00,weatherlink.com 1.10,2013-03-19 09:12:00,
2013-03-19 04:41:00,56.5,49.0,29.97,SSE,166,0.0,5.0,77,0.00,,,0.00,weatherlink.com 1.10,2013-03-19 09:41:00,
2013-03-19 05:11:00,56.0,49.0,29.97,South,169,0.0,4.0,78,0.00,,,0.00,weatherlink.com 1.10,2013-03-19 10:11:00,
2013-03-19 05:26:00,55.6,49.0,29.98,South,188,0.0,3.0,78,0.00,,,0.00,weatherlink.com 1.10,2013-03-19 10:26:00,
2013-03-19 05:41:00,55.1,49.0,29.98,South,174,0.0,3.0,79,0.00,,,0.00,weatherlink.com 1.10,2013-03-19 10:41:00,
2013-03-19 05:56:00,54.9,48.0,29.98,SE,144,0.0,3.0,78,0.00,,,0.00,weatherlink.com 1.10,2013-03-19 10:56:00,
2013-03-19 06:11:00,54.5,47.0,29.97,SSE,160,0.0,3.0,77,0.00,,,0.00,weatherlink.com 1.10,2013-03-19 11:11:00,
2013-03-19 06:26:00,54.1,47.0,29.98,South,188,0.0,1.0,76,0.00,,,0.00,weatherlink.com 1.10,2013-03-19 11:26:00,
2013-03-19 06:41:00,54.0,46.0,29.98,SE,136,0.0,7.0,73,0.00,,,0.00,weatherlink.com 1.10,2013-03-19 11:41:00,
2013-03-19 07:11:00,53.2,45.0,29.98,ESE,122,0.0,4.0,75,0.00,,,0.00,weatherlink.com 1.10,2013-03-19 12:11:00,
2013-03-19 07:41:00,52.5,45.0,29.98,SSE,153,0.0,4.0,76,0.00,,,0.00,weatherlink.com 1.10,2013-03-19 12:41:00,
2013-03-19 07:56:00,52.5,45.0,29.99,South,184,0.0,3.0,77,0.00,,,0.00,weatherlink.com 1.10,2013-03-19 12:56:00,
2013-03-19 08:11:00,52.6,45.0,30.00,South,181,0.0,8.0,76,0.00,,,0.00,weatherlink.com 1.10,2013-03-19 13:11:00,
2013-03-19 08:26:00,52.8,45.0,30.02,West,271,0.0,4.0,76,0.00,,,0.00,weatherlink.com 1.10,2013-03-19 13:26:00,
2013-03-19 08:41:00,53.5,46.0,30.02,ENE,57,0.0,4.0,75,0.00,,,0.00,weatherlink.com 1.10,2013-03-19 13:41:00,
2013-03-19 08:56:00,54.4,45.0,30.03,South,176,0.0,7.0,71,0.00,,,0.00,weatherlink.com 1.10,2013-03-19 13:56:00,
2013-03-19 09:11:00,55.1,45.0,30.04,South,188,0.0,5.0,70,0.00,,,0.00,weatherlink.com 1.10,2013-03-19 14:11:00,
2013-03-19 09:26:00,56.0,45.0,30.04,SSE,163,0.0,5.0,66,0.00,,,0.00,weatherlink.com 1.10,2013-03-19 14:26:00,
2013-03-19 09:41:00,56.7,45.0,30.05,NNW,330,0.0,5.0,65,0.00,,,0.00,weatherlink.com 1.10,2013-03-19 14:41:00,
2013-03-19 09:56:00,57.5,45.0,30.05,North,4,0.0,5.0,63,0.00,,,0.00,weatherlink.com 1.10,2013-03-19 14:56:00,
2013-03-19 10:11:00,59.3,44.0,30.06,NNW,338,0.0,5.0,57,0.00,,,0.00,weatherlink.com 1.10,2013-03-19 15:11:00,
2013-03-19 10:27:00,61.2,43.0,30.06,WNW,294,3.0,5.0,51,0.00,,,0.00,weatherlink.com 1.10,2013-03-19 15:27:00,
2013-03-19 10:57:00,63.5,43.0,30.06,South,184,3.0,6.0,47,0.00,,,0.00,weatherlink.com 1.10,2013-03-19 15:57:00,
2013-03-19 11:12:00,64.7,44.0,30.06,NNW,328,3.0,10.0,47,0.00,,,0.00,weatherlink.com 1.10,2013-03-19 16:12:00,
2013-03-19 11:27:00,64.6,42.0,30.06,NE,39,0.0,9.0,44,0.00,,,0.00,weatherlink.com 1.10,2013-03-19 16:27:00,
2013-03-19 11:42:00,65.9,42.0,30.05,NNE,26,0.0,5.0,42,0.00,,,0.00,weatherlink.com 1.10,2013-03-19 16:42:00,
2013-03-19 12:12:00,67.3,43.0,30.05,SE,132,0.0,6.0,41,0.00,,,0.00,weatherlink.com 1.10,2013-03-19 17:12:00,
2013-03-19 12:27:00,68.5,44.0,30.04,SSE,149,1.0,7.0,41,0.00,,,0.00,weatherlink.com 1.10,2013-03-19 17:27:00,
2013-03-19 13:12:00,71.0,46.0,30.02,SSW,209,0.0,6.0,41,0.00,,,0.00,weatherlink.com 1.10,2013-03-19 18:12:00,
2013-03-19 13:27:00,71.1,46.0,30.01,WNW,296,6.0,6.0,41,0.00,,,0.00,weatherlink.com 1.10,2013-03-19 18:27:00,
2013-03-19 13:42:00,71.5,46.0,30.00,SSE,154,2.0,6.0,40,0.00,,,0.00,weatherlink.com 1.10,2013-03-19 18:42:00,
2013-03-19 13:57:00,71.6,45.0,29.99,South,184,0.0,7.0,38,0.00,,,0.00,weatherlink.com 1.10,2013-03-19 18:57:00,
2013-03-19 14:12:00,72.4,45.0,29.98,SSE,154,1.0,11.0,37,0.00,,,0.00,weatherlink.com 1.10,2013-03-19 19:12:00,
2013-03-19 14:27:00,73.0,47.0,29.98,ESE,112,0.0,7.0,39,0.00,,,0.00,weatherlink.com 1.10,2013-03-19 19:27:00,
2013-03-19 14:42:00,74.1,47.0,29.98,West,269,3.0,6.0,38,0.00,,,0.00,weatherlink.com 1.10,2013-03-19 19:42:00,
2013-03-19 14:57:00,74.3,47.0,29.97,South,172,0.0,8.0,38,0.00,,,0.00,weatherlink.com 1.10,2013-03-19 19:57:00,
2013-03-19 15:12:00,74.8,47.0,29.95,South,174,5.0,6.0,37,0.00,,,0.00,weatherlink.com 1.10,2013-03-19 20:12:00,
2013-03-19 15:27:00,75.2,47.0,29.95,SSE,164,3.0,5.0,37,0.00,,,0.00,weatherlink.com 1.10,2013-03-19 20:27:00,
2013-03-19 15:42:00,75.2,48.0,29.95,SW,236,0.0,4.0,38,0.00,,,0.00,weatherlink.com 1.10,2013-03-19 20:42:00,
2013-03-19 15:57:00,75.2,48.0,29.95,NW,311,0.0,4.0,38,0.00,,,0.00,weatherlink.com 1.10,2013-03-19 20:57:00,
2013-03-19 16:12:00,75.6,48.0,29.95,SW,219,0.0,2.0,38,0.00,,,0.00,weatherlink.com 1.10,2013-03-19 21:12:00,
2013-03-19 16:27:00,75.4,47.0,29.95,NW,312,3.0,3.0,37,0.00,,,0.00,weatherlink.com 1.10,2013-03-19 21:27:00,
2013-03-19 16:42:00,75.9,48.0,29.95,South,181,0.0,4.0,37,0.00,,,0.00,weatherlink.com 1.10,2013-03-19 21:42:00,
2013-03-19 16:57:00,75.9,49.0,29.95,WNW,288,0.0,3.0,39,0.00,,,0.00,weatherlink.com 1.10,2013-03-19 21:57:00,
2013-03-19 17:12:00,76.7,49.0,29.95,West,276,2.0,2.0,38,0.00,,,0.00,weatherlink.com 1.10,2013-03-19 22:12:00,
2013-03-19 17:27:00,75.5,49.0,29.95,NW,307,0.0,3.0,39,0.00,,,0.00,weatherlink.com 1.10,2013-03-19 22:27:00,
2013-03-19 17:42:00,75.2,48.0,29.94,WNW,282,0.0,3.0,39,0.00,,,0.00,weatherlink.com 1.10,2013-03-19 22:42:00,
2013-03-19 17:57:00,73.9,49.0,29.94,West,259,0.0,4.0,41,0.00,,,0.00,weatherlink.com 1.10,2013-03-19 22:57:00,
2013-03-19 18:12:00,73.3,50.0,29.94,West,260,0.0,1.0,44,0.00,,,0.00,weatherlink.com 1.10,2013-03-19 23:12:00,
2013-03-19 18:27:00,72.8,50.0,29.94,West,260,0.0,1.0,45,0.00,,,0.00,weatherlink.com 1.10,2013-03-19 23:27:00,
2013-03-19 18:44:00,71.7,50.0,29.94,West,260,0.0,1.0,46,0.00,,,0.00,weatherlink.com 1.10,2013-03-19 23:44:00,
2013-03-19 18:57:00,70.6,51.0,29.94,West,260,0.0,2.0,50,0.00,,,0.00,weatherlink.com 1.10,2013-03-19 23:57:00,
2013-03-19 19:12:00,69.7,49.0,29.94,West,261,0.0,2.0,48,0.00,,,0.00,weatherlink.com 1.10,2013-03-20 00:12:00,
2013-03-19 19:27:00,69.0,48.0,29.95,SW,223,0.0,3.0,48,0.00,,,0.00,weatherlink.com 1.10,2013-03-20 00:27:00,
2013-03-19 19:42:00,68.6,49.0,29.95,WSW,249,0.0,4.0,49,0.00,,,0.00,weatherlink.com 1.10,2013-03-20 00:42:00,
2013-03-19 19:57:00,68.1,49.0,29.95,WNW,290,0.0,3.0,50,0.00,,,0.00,weatherlink.com 1.10,2013-03-20 00:57:00,
2013-03-19 20:12:00,67.7,47.0,29.96,East,95,0.0,2.0,48,0.00,,,0.00,weatherlink.com 1.10,2013-03-20 01:12:00,
2013-03-19 20:27:00,67.7,46.0,29.97,WSW,240,2.0,4.0,46,0.00,,,0.00,weatherlink.com 1.10,2013-03-20 01:27:00,
2013-03-19 20:42:00,67.5,46.0,29.97,WSW,240,0.0,5.0,46,0.00,,,0.00,weatherlink.com 1.10,2013-03-20 01:42:00,
2013-03-19 20:57:00,67.2,46.0,29.97,WSW,251,0.0,6.0,46,0.00,,,0.00,weatherlink.com 1.10,2013-03-20 01:57:00,
2013-03-19 21:12:00,66.8,46.0,29.98,NW,324,0.0,5.0,47,0.00,,,0.00,weatherlink.com 1.10,2013-03-20 02:12:00,
2013-03-19 21:27:00,66.4,44.0,29.99,SW,215,0.0,4.0,44,0.00,,,0.00,weatherlink.com 1.10,2013-03-20 02:27:00,
2013-03-19 21:42:00,66.5,44.0,30.01,SW,235,2.0,7.0,44,0.00,,,0.00,weatherlink.com 1.10,2013-03-20 02:42:00,
2013-03-19 21:57:00,66.2,43.0,30.02,SW,232,0.0,7.0,44,0.00,,,0.00,weatherlink.com 1.10,2013-03-20 02:57:00,
2013-03-19 22:12:00,65.8,42.0,30.02,SSW,211,6.0,13.0,42,0.00,,,0.00,weatherlink.com 1.10,2013-03-20 03:12:00,
2013-03-19 22:27:00,65.2,41.0,30.02,SSW,203,1.0,8.0,41,0.00,,,0.00,weatherlink.com 1.10,2013-03-20 03:27:00,
2013-03-19 22:42:00,64.7,40.0,30.02,East,96,0.0,5.0,41,0.00,,,0.00,weatherlink.com 1.10,2013-03-20 03:42:00,
2013-03-19 22:57:00,64.3,40.0,30.02,SSE,161,0.0,6.0,41,0.00,,,0.00,weatherlink.com 1.10,2013-03-20 03:57:00,
2013-03-19 23:13:00,63.9,40.0,30.02,SSE,159,0.0,7.0,42,0.00,,,0.00,weatherlink.com 1.10,2013-03-20 04:13:00,
2013-03-19 23:28:00,63.3,41.0,30.02,SSE,151,0.0,4.0,44,0.00,,,0.00,weatherlink.com 1.10,2013-03-20 04:28:00,
2013-03-19 23:42:00,63.0,41.0,30.01,SSE,168,0.0,7.0,44,0.00,,,0.00,weatherlink.com 1.10,2013-03-20 04:42:00,
2013-03-19 23:58:00,62.7,40.0,30.02,WSW,257,0.0,6.0,43,0.00,,,0.00,weatherlink.com 1.10,2013-03-20 04:58:00,